Time,TemperatureF,DewpointF,PressureIn,WindDirection,WindDirectionDegrees,WindSpeedMPH,WindSpeedGustMPH,Humidity,HourlyPrecipIn,Conditions,Clouds,dailyrainin,SoftwareType,DateUTC
2013-04-25 00:00:00,53.6,48.3,29.94,NNW,338,0.0,1.6,82,0.00,,,0.00,WUHU216HW,2013-04-25 07:00:00,
2013-04-25 00:05:00,53.6,48.3,29.95,NE,45,0.2,0.4,82,0.00,,,0.00,WUHU216HW,2013-04-25 07:05:00,
2013-04-25 00:10:00,53.6,48.6,29.96,NE,45,0.0,1.1,83,0.00,,,0.00,WUHU216HW,2013-04-25 07:10:00,
2013-04-25 00:15:00,53.6,48.6,29.95,North,0,0.7,1.1,83,0.00,,,0.00,WUHU216HW,2013-04-25 07:15:00,
2013-04-25 00:20:00,53.6,48.6,29.95,NNE,23,0.7,0.7,83,0.00,,,0.00,WUHU216HW,2013-04-25 07:20:00,
2013-04-25 00:25:00,53.5,48.4,29.95,North,0,0.2,0.7,83,0.00,,,0.00,WUHU216HW,2013-04-25 07:25:00,
2013-04-25 00:30:00,53.6,48.6,29.95,North,0,0.7,0.7,83,0.00,,,0.00,WUHU216HW,2013-04-25 07:30:00,
2013-04-25 00:36:00,53.5,48.4,29.95,North,0,0.0,1.8,83,0.00,,,0.00,WUHU216HW,2013-04-25 07:36:00,
2013-04-25 00:41:00,53.5,48.4,29.95,NNE,23,0.4,1.8,83,0.00,,,0.00,WUHU216HW,2013-04-25 07:41:00,
2013-04-25 00:46:00,53.5,48.8,29.96,ENE,68,0.4,0.9,84,0.00,,,0.00,WUHU216HW,2013-04-25 07:46:00,
2013-04-25 00:51:00,53.3,48.2,29.96,North,0,0.9,1.1,83,0.00,,,0.00,WUHU216HW,2013-04-25 07:51:00,
2013-04-25 00:56:00,53.3,48.2,29.95,NNE,23,0.0,1.1,83,0.00,,,0.00,WUHU216HW,2013-04-25 07:56:00,
2013-04-25 01:01:00,53.5,48.8,29.95,NNE,23,0.9,1.6,84,0.00,,,0.00,WUHU216HW,2013-04-25 08:01:00,
2013-04-25 01:06:00,53.3,48.6,29.98,NNE,23,1.1,1.6,84,0.00,,,0.00,WUHU216HW,2013-04-25 08:06:00,
2013-04-25 01:11:00,53.1,48.4,29.99,NNW,338,0.2,1.1,84,0.00,,,0.00,WUHU216HW,2013-04-25 08:11:00,
2013-04-25 01:16:00,53.1,48.4,29.98,NNE,23,0.0,0.7,84,0.00,,,0.00,WUHU216HW,2013-04-25 08:16:00,
2013-04-25 01:21:00,53.1,48.4,29.98,NNE,23,0.0,0.2,84,0.00,,,0.00,WUHU216HW,2013-04-25 08:21:00,
2013-04-25 01:26:00,53.3,48.6,29.98,North,0,0.4,0.4,84,0.00,,,0.00,WUHU216HW,2013-04-25 08:26:00,
2013-04-25 01:32:00,53.3,48.6,29.98,North,0,0.0,0.4,84,0.00,,,0.00,WUHU216HW,2013-04-25 08:32:00,
2013-04-25 01:37:00,53.3,48.6,29.97,North,0,0.0,0.0,84,0.00,,,0.00,WUHU216HW,2013-04-25 08:37:00,
2013-04-25 01:42:00,53.3,48.6,29.98,NNE,23,0.0,0.0,84,0.00,,,0.00,WUHU216HW,2013-04-25 08:42:00,
2013-04-25 01:47:00,53.3,48.6,29.98,NNE,23,0.0,0.0,84,0.00,,,0.00,WUHU216HW,2013-04-25 08:47:00,
2013-04-25 01:52:00,53.3,48.6,29.97,NNE,23,0.0,0.0,84,0.00,,,0.00,WUHU216HW,2013-04-25 08:52:00,
2013-04-25 01:57:00,53.5,48.8,29.98,NNE,23,0.0,0.0,84,0.00,,,0.00,WUHU216HW,2013-04-25 08:57:00,
2013-04-25 02:02:00,53.5,48.8,29.98,North,0,0.4,0.4,84,0.00,,,0.00,WUHU216HW,2013-04-25 09:02:00,
2013-04-25 02:08:00,53.5,48.8,29.99,North,0,0.0,0.7,84,0.00,,,0.00,WUHU216HW,2013-04-25 09:08:00,
2013-04-25 02:13:00,53.3,48.6,29.95,North,0,0.0,0.7,84,0.00,,,0.00,WUHU216HW,2013-04-25 09:13:00,
2013-04-25 02:18:00,53.3,48.6,29.94,NNE,23,0.0,0.2,84,0.00,,,0.00,WUHU216HW,2013-04-25 09:18:00,
2013-04-25 02:23:00,53.3,48.6,29.94,North,0,0.9,0.9,84,0.00,,,0.00,WUHU216HW,2013-04-25 09:23:00,
2013-04-25 02:28:00,53.3,48.6,29.95,North,0,0.0,0.9,84,0.00,,,0.00,WUHU216HW,2013-04-25 09:28:00,
2013-04-25 02:33:00,53.1,48.4,29.94,NNE,23,0.4,0.7,84,0.00,,,0.00,WUHU216HW,2013-04-25 09:33:00,
2013-04-25 02:38:00,53.1,48.4,29.95,NNE,23,0.2,0.7,84,0.00,,,0.00,WUHU216HW,2013-04-25 09:38:00,
2013-04-25 02:43:00,53.1,48.4,29.95,ENE,68,0.0,0.2,84,0.00,,,0.00,WUHU216HW,2013-04-25 09:43:00,
2013-04-25 02:48:00,53.3,48.6,29.95,NE,45,0.0,0.2,84,0.00,,,0.00,WUHU216HW,2013-04-25 09:48:00,
2013-04-25 02:53:00,53.1,48.4,29.94,NE,45,0.0,0.0,84,0.00,,,0.00,WUHU216HW,2013-04-25 09:53:00,
2013-04-25 02:58:00,53.1,48.4,29.94,NE,45,0.0,0.2,84,0.00,,,0.00,WUHU216HW,2013-04-25 09:58:00,
2013-04-25 03:04:00,53.1,48.7,29.94,NE,45,0.0,0.4,85,0.00,,,0.00,WUHU216HW,2013-04-25 10:04:00,
2013-04-25 03:09:00,53.1,48.7,29.94,NE,45,0.0,0.4,85,0.00,,,0.00,WUHU216HW,2013-04-25 10:09:00,
2013-04-25 03:14:00,52.9,48.5,29.94,NE,45,0.7,0.7,85,0.00,,,0.00,WUHU216HW,2013-04-25 10:14:00,
2013-04-25 03:19:00,52.9,48.5,29.94,NNE,23,0.0,0.9,85,0.00,,,0.00,WUHU216HW,2013-04-25 10:19:00,
2013-04-25 03:24:00,52.9,48.5,29.94,NNE,23,0.0,0.9,85,0.00,,,0.00,WUHU216HW,2013-04-25 10:24:00,
2013-04-25 03:29:00,52.9,48.5,29.94,NNE,23,0.0,0.4,85,0.00,,,0.00,WUHU216HW,2013-04-25 10:29:00,
2013-04-25 03:34:00,52.9,48.5,29.95,NNE,23,0.0,0.0,85,0.00,,,0.00,WUHU216HW,2013-04-25 10:34:00,
2013-04-25 03:39:00,52.9,48.5,29.94,NNE,23,0.0,0.0,85,0.00,,,0.00,WUHU216HW,2013-04-25 10:39:00,
2013-04-25 03:44:00,52.9,48.8,29.96,NE,45,0.2,0.4,86,0.00,,,0.00,WUHU216HW,2013-04-25 10:44:00,
2013-04-25 03:49:00,52.9,48.5,29.95,ENE,68,0.0,0.4,85,0.00,,,0.00,WUHU216HW,2013-04-25 10:49:00,
2013-04-25 03:55:00,53.1,49.0,29.94,ENE,68,0.0,0.0,86,0.00,,,0.00,WUHU216HW,2013-04-25 10:55:00,
2013-04-25 04:00:00,53.1,48.7,29.94,ENE,68,0.0,0.0,85,0.00,,,0.00,WUHU216HW,2013-04-25 11:00:00,
2013-04-25 04:05:00,53.1,48.7,29.94,NE,45,0.2,0.2,85,0.00,,,0.00,WUHU216HW,2013-04-25 11:05:00,
2013-04-25 04:10:00,53.1,48.7,29.95,NE,45,0.0,0.4,85,0.00,,,0.00,WUHU216HW,2013-04-25 11:10:00,
2013-04-25 04:15:00,53.1,48.7,29.94,NE,45,0.0,0.4,85,0.00,,,0.00,WUHU216HW,2013-04-25 11:15:00,
2013-04-25 04:20:00,52.9,48.5,29.95,ENE,68,0.4,0.4,85,0.00,,,0.00,WUHU216HW,2013-04-25 11:20:00,
2013-04-25 04:25:00,52.9,48.5,29.96,ENE,68,0.0,0.4,85,0.00,,,0.00,WUHU216HW,2013-04-25 11:25:00,
2013-04-25 04:30:00,52.9,48.5,29.95,NE,45,0.0,0.0,85,0.00,,,0.00,WUHU216HW,2013-04-25 11:30:00,
2013-04-25 04:35:00,52.9,48.5,29.95,NE,45,0.0,0.0,85,0.00,,,0.00,WUHU216HW,2013-04-25 11:35:00,
2013-04-25 04:40:00,52.9,48.5,29.94,NE,45,0.0,0.0,85,0.00,,,0.00,WUHU216HW,2013-04-25 11:40:00,
2013-04-25 04:46:00,52.9,48.8,29.95,NNE,23,0.0,0.4,86,0.00,,,0.00,WUHU216HW,2013-04-25 11:46:00,
2013-04-25 04:51:00,53.1,49.0,29.95,NE,45,0.0,0.4,86,0.00,,,0.00,WUHU216HW,2013-04-25 11:51:00,
2013-04-25 04:56:00,53.1,49.0,29.95,NE,45,0.0,0.0,86,0.00,,,0.00,WUHU216HW,2013-04-25 11:56:00,
2013-04-25 05:01:00,53.1,49.0,29.94,NE,45,0.0,0.0,86,0.00,,,0.00,WUHU216HW,2013-04-25 12:01:00,
2013-04-25 05:06:00,53.1,48.7,29.95,ENE,68,0.0,0.0,85,0.00,,,0.00,WUHU216HW,2013-04-25 12:06:00,
2013-04-25 05:11:00,53.1,48.7,29.95,ENE,68,0.0,0.0,85,0.00,,,0.00,WUHU216HW,2013-04-25 12:11:00,
2013-04-25 05:16:00,53.1,48.7,29.96,NNE,23,0.2,0.2,85,0.00,,,0.00,WUHU216HW,2013-04-25 12:16:00,
2013-04-25 05:21:00,53.1,49.0,29.96,NE,45,0.0,0.2,86,0.00,,,0.00,WUHU216HW,2013-04-25 12:21:00,
2013-04-25 05:26:00,53.1,49.0,29.95,NE,45,0.0,0.0,86,0.00,,,0.00,WUHU216HW,2013-04-25 12:26:00,
2013-04-25 05:31:00,52.9,48.8,29.94,NNE,23,0.0,0.0,86,0.00,,,0.00,WUHU216HW,2013-04-25 12:31:00,
2013-04-25 05:37:00,52.9,48.8,29.94,NNE,23,0.0,0.0,86,0.00,,,0.00,WUHU216HW,2013-04-25 12:37:00,
2013-04-25 05:42:00,52.9,48.8,29.95,NNE,23,0.0,0.0,86,0.00,,,0.00,WUHU216HW,2013-04-25 12:42:00,
2013-04-25 05:47:00,52.9,48.8,29.95,NNE,23,0.0,0.0,86,0.00,,,0.00,WUHU216HW,2013-04-25 12:47:00,
2013-04-25 05:52:00,52.9,48.8,29.95,NNE,23,0.0,0.0,86,0.00,,,0.00,WUHU216HW,2013-04-25 12:52:00,
2013-04-25 05:57:00,52.9,48.8,29.95,NNE,23,0.0,0.0,86,0.00,,,0.00,WUHU216HW,2013-04-25 12:57:00,
2013-04-25 06:02:00,52.9,48.8,29.96,NNE,23,0.0,0.0,86,0.00,,,0.00,WUHU216HW,2013-04-25 13:02:00,
2013-04-25 06:07:00,52.9,48.8,29.95,ENE,68,0.0,0.0,86,0.00,,,0.00,WUHU216HW,2013-04-25 13:07:00,
2013-04-25 06:12:00,52.9,48.8,29.96,ENE,68,0.0,0.0,86,0.00,,,0.00,WUHU216HW,2013-04-25 13:12:00,
2013-04-25 06:17:00,52.9,48.8,29.96,ENE,68,0.0,0.2,86,0.00,,,0.00,WUHU216HW,2013-04-25 13:17:00,
2013-04-25 06:22:00,52.9,48.8,29.96,ENE,68,0.0,0.2,86,0.00,,,0.00,WUHU216HW,2013-04-25 13:22:00,
2013-04-25 06:28:00,52.9,48.8,29.96,NE,45,0.0,0.2,86,0.00,,,0.00,WUHU216HW,2013-04-25 13:28:00,
2013-04-25 06:33:00,52.9,48.8,29.97,NE,45,0.0,0.2,86,0.00,,,0.00,WUHU216HW,2013-04-25 13:33:00,
2013-04-25 06:38:00,52.9,48.8,29.97,NE,45,0.0,0.2,86,0.00,,,0.00,WUHU216HW,2013-04-25 13:38:00,
2013-04-25 06:43:00,52.9,48.8,29.96,NE,45,0.0,0.2,86,0.00,,,0.00,WUHU216HW,2013-04-25 13:43:00,
2013-04-25 06:48:00,52.9,48.8,29.96,NE,45,0.0,0.0,86,0.00,,,0.00,WUHU216HW,2013-04-25 13:48:00,
2013-04-25 06:53:00,52.9,48.8,29.97,NE,45,0.0,0.0,86,0.00,,,0.00,WUHU216HW,2013-04-25 13:53:00,
2013-04-25 06:58:00,52.9,48.8,29.98,ENE,68,0.0,0.4,86,0.00,,,0.00,WUHU216HW,2013-04-25 13:58:00,
2013-04-25 07:03:00,52.9,48.8,29.98,North,0,0.2,0.4,86,0.00,,,0.00,WUHU216HW,2013-04-25 14:03:00,
2013-04-25 07:08:00,52.7,48.6,29.99,NE,45,0.2,0.2,86,0.00,,,0.00,WUHU216HW,2013-04-25 14:08:00,
2013-04-25 07:13:00,52.7,48.6,29.98,East,90,0.0,0.2,86,0.00,,,0.00,WUHU216HW,2013-04-25 14:13:00,
2013-04-25 07:19:00,52.7,49.0,29.99,NNE,23,0.0,0.4,87,0.00,,,0.00,WUHU216HW,2013-04-25 14:19:00,
2013-04-25 07:24:00,52.7,49.0,29.99,North,0,0.4,0.9,87,0.00,,,0.00,WUHU216HW,2013-04-25 14:24:00,
2013-04-25 07:29:00,52.6,48.8,29.98,North,0,0.0,0.9,87,0.00,,,0.00,WUHU216HW,2013-04-25 14:29:00,
2013-04-25 07:34:00,52.6,48.8,30.00,ENE,68,0.2,0.4,87,0.00,,,0.00,WUHU216HW,2013-04-25 14:34:00,
2013-04-25 07:39:00,52.6,48.8,29.99,North,0,0.0,0.4,87,0.00,,,0.00,WUHU216HW,2013-04-25 14:39:00,
2013-04-25 07:44:00,52.6,48.8,29.99,ENE,68,0.4,0.4,87,0.00,,,0.00,WUHU216HW,2013-04-25 14:44:00,
2013-04-25 07:49:00,52.6,48.8,30.00,NE,45,0.0,0.7,87,0.00,,,0.00,WUHU216HW,2013-04-25 14:49:00,
2013-04-25 07:54:00,52.6,48.8,30.02,NNE,23,0.0,0.7,87,0.00,,,0.00,WUHU216HW,2013-04-25 14:54:00,
2013-04-25 07:59:00,52.6,48.8,30.00,North,0,0.0,0.4,87,0.00,,,0.00,WUHU216HW,2013-04-25 14:59:00,
2013-04-25 08:04:00,52.7,49.0,30.00,NNE,23,0.2,0.4,87,0.00,,,0.00,WUHU216HW,2013-04-25 15:04:00,
2013-04-25 08:09:00,52.6,49.1,30.02,East,90,0.2,0.9,88,0.00,,,0.00,WUHU216HW,2013-04-25 15:09:00,
2013-04-25 08:14:00,52.6,49.1,30.02,North,0,0.7,0.9,88,0.00,,,0.00,WUHU216HW,2013-04-25 15:14:00,
2013-04-25 08:19:00,52.6,49.1,30.00,ENE,68,0.0,0.7,88,0.00,,,0.00,WUHU216HW,2013-04-25 15:19:00,
2013-04-25 08:25:00,52.7,49.2,30.00,NNE,23,0.0,0.4,88,0.00,,,0.00,WUHU216HW,2013-04-25 15:25:00,
2013-04-25 08:30:00,52.9,49.4,30.01,NE,45,0.0,0.2,88,0.00,,,0.00,WUHU216HW,2013-04-25 15:30:00,
2013-04-25 08:35:00,52.9,49.4,30.01,ENE,68,0.0,0.0,88,0.00,,,0.00,WUHU216HW,2013-04-25 15:35:00,
2013-04-25 08:40:00,52.9,49.4,30.01,ENE,68,0.0,0.0,88,0.00,,,0.00,WUHU216HW,2013-04-25 15:40:00,
2013-04-25 08:45:00,53.1,49.6,30.01,ENE,68,0.0,0.0,88,0.00,,,0.00,WUHU216HW,2013-04-25 15:45:00,
2013-04-25 08:50:00,53.3,49.8,30.01,ENE,68,0.0,0.0,88,0.00,,,0.00,WUHU216HW,2013-04-25 15:50:00,
2013-04-25 08:55:00,53.3,49.8,30.02,NNE,23,0.7,0.7,88,0.00,,,0.00,WUHU216HW,2013-04-25 15:55:00,
2013-04-25 09:00:00,53.5,49.7,30.01,NE,45,0.0,0.7,87,0.00,,,0.00,WUHU216HW,2013-04-25 16:00:00,
2013-04-25 09:05:00,53.6,50.1,30.01,NE,45,0.2,0.7,88,0.00,,,0.00,WUHU216HW,2013-04-25 16:05:00,
2013-04-25 09:10:00,53.6,49.9,30.02,North,0,0.9,0.9,87,0.00,,,0.00,WUHU216HW,2013-04-25 16:10:00,
2013-04-25 09:15:00,53.6,49.9,30.03,ENE,68,0.2,0.9,87,0.00,,,0.00,WUHU216HW,2013-04-25 16:15:00,
2013-04-25 09:20:00,53.6,49.9,30.03,North,0,0.4,0.4,87,0.00,,,0.00,WUHU216HW,2013-04-25 16:20:00,
2013-04-25 09:26:00,53.6,49.5,30.04,NE,45,0.0,0.4,86,0.00,,,0.00,WUHU216HW,2013-04-25 16:26:00,
2013-04-25 09:31:00,53.8,49.7,30.03,NE,45,0.0,0.2,86,0.00,,,0.00,WUHU216HW,2013-04-25 16:31:00,
2013-04-25 09:36:00,53.8,49.7,30.03,NE,45,0.0,0.4,86,0.00,,,0.00,WUHU216HW,2013-04-25 16:36:00,
2013-04-25 09:41:00,53.8,49.7,30.04,North,0,0.4,0.7,86,0.00,,,0.00,WUHU216HW,2013-04-25 16:41:00,
2013-04-25 09:46:00,53.8,49.7,30.05,NE,45,0.0,0.7,86,0.00,,,0.00,WUHU216HW,2013-04-25 16:46:00,
2013-04-25 09:51:00,54.2,50.0,30.04,ENE,68,0.4,0.4,86,0.00,,,0.00,WUHU216HW,2013-04-25 16:51:00,
2013-04-25 09:56:00,54.4,50.2,30.04,NE,45,0.0,0.4,86,0.00,,,0.00,WUHU216HW,2013-04-25 16:56:00,
2013-04-25 10:01:00,54.5,50.4,30.04,NE,45,0.2,1.1,86,0.00,,,0.00,WUHU216HW,2013-04-25 17:01:00,
2013-04-25 10:06:00,54.7,50.6,30.05,ENE,68,0.4,1.1,86,0.00,,,0.00,WUHU216HW,2013-04-25 17:06:00,
2013-04-25 10:11:00,55.1,50.6,30.05,North,0,0.4,0.7,85,0.00,,,0.00,WUHU216HW,2013-04-25 17:11:00,
2013-04-25 10:17:00,55.3,50.5,30.04,NNW,338,0.0,0.4,84,0.00,,,0.00,WUHU216HW,2013-04-25 17:17:00,
2013-04-25 10:22:00,55.6,50.8,30.04,NNE,23,0.0,1.6,84,0.00,,,0.00,WUHU216HW,2013-04-25 17:22:00,
2013-04-25 10:27:00,55.8,50.7,30.05,North,0,0.0,1.6,83,0.00,,,0.00,WUHU216HW,2013-04-25 17:27:00,
2013-04-25 10:32:00,56.0,50.9,30.05,North,0,0.9,0.9,83,0.00,,,0.00,WUHU216HW,2013-04-25 17:32:00,
2013-04-25 10:37:00,56.3,50.9,30.04,NNE,23,0.4,0.9,82,0.00,,,0.00,WUHU216HW,2013-04-25 17:37:00,
2013-04-25 10:42:00,56.7,51.6,30.05,North,0,1.1,1.1,83,0.00,,,0.00,WUHU216HW,2013-04-25 17:42:00,
2013-04-25 10:47:00,56.7,51.2,30.05,NNW,338,0.0,1.8,82,0.00,,,0.00,WUHU216HW,2013-04-25 17:47:00,
2013-04-25 10:52:00,56.7,51.2,30.05,SSW,203,0.0,1.8,82,0.00,,,0.00,WUHU216HW,2013-04-25 17:52:00,
2013-04-25 10:57:00,57.1,51.3,30.05,SE,135,0.4,0.9,81,0.00,,,0.00,WUHU216HW,2013-04-25 17:57:00,
2013-04-25 11:02:00,57.4,51.7,30.05,NNE,23,1.1,1.1,81,0.00,,,0.00,WUHU216HW,2013-04-25 18:02:00,
2013-04-25 11:07:00,57.6,51.5,30.04,NNE,23,0.2,1.6,80,0.00,,,0.00,WUHU216HW,2013-04-25 18:07:00,
2013-04-25 11:13:00,57.6,51.5,30.04,East,90,0.4,2.2,80,0.00,,,0.00,WUHU216HW,2013-04-25 18:13:00,
2013-04-25 11:18:00,58.0,51.8,30.04,NE,45,0.4,2.2,80,0.00,,,0.00,WUHU216HW,2013-04-25 18:18:00,
2013-04-25 11:23:00,58.1,51.7,30.04,North,0,0.2,1.8,79,0.00,,,0.00,WUHU216HW,2013-04-25 18:23:00,
2013-04-25 11:28:00,59.0,52.9,30.06,North,0,1.8,1.8,80,0.00,,,0.00,WUHU216HW,2013-04-25 18:28:00,
2013-04-25 11:33:00,59.8,52.9,30.05,NW,315,0.4,1.8,78,0.00,,,0.00,WUHU216HW,2013-04-25 18:33:00,
2013-04-25 11:38:00,60.1,52.6,30.04,ENE,68,2.2,2.2,76,0.00,,,0.00,WUHU216HW,2013-04-25 18:38:00,
2013-04-25 11:43:00,60.1,52.6,30.05,NNE,23,1.3,2.2,76,0.00,,,0.00,WUHU216HW,2013-04-25 18:43:00,
2013-04-25 11:48:00,60.5,52.6,30.04,North,0,2.2,2.2,75,0.00,,,0.00,WUHU216HW,2013-04-25 18:48:00,
2013-04-25 11:53:00,60.7,52.0,30.05,North,0,3.4,3.4,73,0.00,,,0.00,WUHU216HW,2013-04-25 18:53:00,
2013-04-25 11:58:00,60.8,52.2,30.04,NNW,338,0.7,4.0,73,0.00,,,0.00,WUHU216HW,2013-04-25 18:58:00,
2013-04-25 12:03:00,60.8,52.2,30.04,WNW,293,0.7,5.1,73,0.00,,,0.00,WUHU216HW,2013-04-25 19:03:00,
2013-04-25 12:09:00,61.2,52.6,30.05,East,90,1.6,5.1,73,0.00,,,0.00,WUHU216HW,2013-04-25 19:09:00,
2013-04-25 12:14:00,61.7,52.3,30.04,North,0,1.6,5.6,71,0.00,,,0.00,WUHU216HW,2013-04-25 19:14:00,
2013-04-25 12:19:00,61.9,52.1,30.04,NE,45,1.8,5.6,70,0.00,,,0.00,WUHU216HW,2013-04-25 19:19:00,
2013-04-25 12:24:00,61.9,52.5,30.05,WNW,293,1.6,4.9,71,0.00,,,0.00,WUHU216HW,2013-04-25 19:24:00,
2013-04-25 12:29:00,62.3,52.7,30.04,North,0,2.7,4.7,71,0.00,,,0.00,WUHU216HW,2013-04-25 19:29:00,
2013-04-25 12:34:00,62.5,52.6,30.05,NNE,23,1.8,5.8,70,0.00,,,0.00,WUHU216HW,2013-04-25 19:34:00,
2013-04-25 12:39:00,62.8,52.5,30.05,NNW,338,4.9,5.8,69,0.00,,,0.00,WUHU216HW,2013-04-25 19:39:00,
2013-04-25 12:44:00,63.2,52.5,30.03,ENE,68,0.4,4.9,68,0.00,,,0.00,WUHU216HW,2013-04-25 19:44:00,
2013-04-25 12:49:00,63.4,52.2,30.06,NE,45,3.6,4.7,67,0.00,,,0.00,WUHU216HW,2013-04-25 19:49:00,
2013-04-25 12:54:00,63.7,53.0,30.06,SSW,203,1.3,4.7,68,0.00,,,0.00,WUHU216HW,2013-04-25 19:54:00,
2013-04-25 12:59:00,64.1,52.5,30.04,NNE,23,1.1,3.8,66,0.00,,,0.00,WUHU216HW,2013-04-25 19:59:00,
2013-04-25 13:04:00,64.4,52.8,30.04,NNW,338,1.1,2.9,66,0.00,,,0.00,WUHU216HW,2013-04-25 20:04:00,
2013-04-25 13:10:00,64.6,52.6,30.05,North,0,2.5,4.0,65,0.00,,,0.00,WUHU216HW,2013-04-25 20:10:00,
2013-04-25 13:15:00,64.8,52.3,30.05,ENE,68,2.2,4.3,64,0.00,,,0.00,WUHU216HW,2013-04-25 20:15:00,
2013-04-25 13:20:00,64.8,52.3,30.06,North,0,2.5,4.3,64,0.00,,,0.00,WUHU216HW,2013-04-25 20:20:00,
2013-04-25 13:25:00,64.4,51.1,30.05,NE,45,3.4,5.1,62,0.00,,,0.00,WUHU216HW,2013-04-25 20:25:00,
2013-04-25 13:30:00,64.4,51.9,30.05,SW,225,1.1,5.1,64,0.00,,,0.00,WUHU216HW,2013-04-25 20:30:00,
2013-04-25 13:35:00,65.0,52.0,30.05,WSW,248,1.8,4.7,63,0.00,,,0.00,WUHU216HW,2013-04-25 20:35:00,
2013-04-25 13:40:00,65.2,51.8,30.07,NNE,23,4.0,4.0,62,0.00,,,0.00,WUHU216HW,2013-04-25 20:40:00,
2013-04-25 13:45:00,65.2,51.4,30.05,NE,45,4.7,4.9,61,0.00,,,0.00,WUHU216HW,2013-04-25 20:45:00,
2013-04-25 13:50:00,64.4,50.7,30.06,NNW,338,2.5,5.8,61,0.00,,,0.00,WUHU216HW,2013-04-25 20:50:00,
2013-04-25 13:55:00,64.4,51.1,30.05,NE,45,3.6,5.8,62,0.00,,,0.00,WUHU216HW,2013-04-25 20:55:00,
2013-04-25 14:01:00,64.6,51.3,30.05,NNE,23,3.8,5.8,62,0.00,,,0.00,WUHU216HW,2013-04-25 21:01:00,
2013-04-25 14:06:00,64.6,50.9,30.06,North,0,3.4,5.8,61,0.00,,,0.00,WUHU216HW,2013-04-25 21:06:00,
2013-04-25 14:11:00,64.4,50.7,30.06,East,90,4.7,6.5,61,0.00,,,0.00,WUHU216HW,2013-04-25 21:11:00,
2013-04-25 14:16:00,64.3,50.5,30.06,NE,45,3.4,6.5,61,0.00,,,0.00,WUHU216HW,2013-04-25 21:16:00,
2013-04-25 14:21:00,63.7,50.1,30.06,NNE,23,1.8,6.9,61,0.00,,,0.00,WUHU216HW,2013-04-25 21:21:00,
2013-04-25 14:26:00,63.7,50.9,30.06,NNW,338,2.2,8.1,63,0.00,,,0.00,WUHU216HW,2013-04-25 21:26:00,
2013-04-25 14:31:00,63.5,50.2,30.06,NNE,23,4.9,8.1,62,0.00,,,0.00,WUHU216HW,2013-04-25 21:31:00,
2013-04-25 14:36:00,63.5,50.2,30.06,NNW,338,5.4,6.9,62,0.00,,,0.00,WUHU216HW,2013-04-25 21:36:00,
2013-04-25 14:41:00,63.7,50.9,30.06,NNE,23,1.8,6.7,63,0.00,,,0.00,WUHU216HW,2013-04-25 21:41:00,
2013-04-25 14:47:00,63.9,50.6,30.07,ENE,68,4.5,5.4,62,0.00,,,0.00,WUHU216HW,2013-04-25 21:47:00,
2013-04-25 14:52:00,63.7,50.4,30.07,NE,45,6.7,6.7,62,0.00,,,0.00,WUHU216HW,2013-04-25 21:52:00,
2013-04-25 14:57:00,63.5,50.2,30.07,NNE,23,1.1,6.7,62,0.00,,,0.00,WUHU216HW,2013-04-25 21:57:00,
2013-04-25 15:02:00,63.5,50.7,30.07,ENE,68,1.8,6.7,63,0.00,,,0.00,WUHU216HW,2013-04-25 22:02:00,
2013-04-25 15:07:00,63.4,50.5,30.07,NE,45,4.0,8.1,63,0.00,,,0.00,WUHU216HW,2013-04-25 22:07:00,
2013-04-25 15:12:00,63.0,50.2,30.07,North,0,4.0,8.1,63,0.00,,,0.00,WUHU216HW,2013-04-25 22:12:00,
2013-04-25 15:17:00,62.8,50.4,30.07,NNE,23,1.8,8.1,64,0.00,,,0.00,WUHU216HW,2013-04-25 22:17:00,
2013-04-25 15:22:00,62.8,50.4,30.07,NNW,338,2.0,6.7,64,0.00,,,0.00,WUHU216HW,2013-04-25 22:22:00,
2013-04-25 15:27:00,63.0,50.6,30.06,NNW,338,0.9,5.8,64,0.00,,,0.00,WUHU216HW,2013-04-25 22:27:00,
2013-04-25 15:32:00,63.2,50.3,30.05,ENE,68,4.3,5.8,63,0.00,,,0.00,WUHU216HW,2013-04-25 22:32:00,
2013-04-25 15:38:00,62.8,50.4,30.06,North,0,6.3,6.3,64,0.00,,,0.00,WUHU216HW,2013-04-25 22:38:00,
2013-04-25 15:43:00,62.3,50.0,30.08,NNE,23,5.1,6.3,64,0.00,,,0.00,WUHU216HW,2013-04-25 22:43:00,
2013-04-25 15:48:00,62.1,49.8,30.06,NNE,23,2.5,6.7,64,0.00,,,0.00,WUHU216HW,2013-04-25 22:48:00,
2013-04-25 15:53:00,61.9,50.1,30.06,ENE,68,1.1,6.9,65,0.00,,,0.00,WUHU216HW,2013-04-25 22:53:00,
2013-04-25 15:58:00,61.9,50.1,30.06,North,0,6.3,6.9,65,0.00,,,0.00,WUHU216HW,2013-04-25 22:58:00,
2013-04-25 16:03:00,61.7,49.9,30.06,NW,315,3.4,6.5,65,0.00,,,0.00,WUHU216HW,2013-04-25 23:03:00,
2013-04-25 16:08:00,61.7,49.9,30.06,NE,45,3.4,5.1,65,0.00,,,0.00,WUHU216HW,2013-04-25 23:08:00,
2013-04-25 16:13:00,61.6,50.1,30.06,NNE,23,0.4,6.9,66,0.00,,,0.00,WUHU216HW,2013-04-25 23:13:00,
2013-04-25 16:18:00,61.2,49.8,30.06,North,0,4.7,6.9,66,0.00,,,0.00,WUHU216HW,2013-04-25 23:18:00,
2013-04-25 16:23:00,60.8,49.5,30.06,North,0,1.8,6.9,66,0.00,,,0.00,WUHU216HW,2013-04-25 23:23:00,
2013-04-25 16:29:00,60.8,49.9,30.07,ENE,68,4.5,6.9,67,0.00,,,0.00,WUHU216HW,2013-04-25 23:29:00,
2013-04-25 16:34:00,60.5,49.5,30.06,NE,45,1.6,5.4,67,0.00,,,0.00,WUHU216HW,2013-04-25 23:34:00,
2013-04-25 16:39:00,60.5,49.5,30.07,NNE,23,1.3,6.3,67,0.00,,,0.00,WUHU216HW,2013-04-25 23:39:00,
2013-04-25 16:44:00,60.1,49.6,30.06,NE,45,2.0,6.3,68,0.00,,,0.00,WUHU216HW,2013-04-25 23:44:00,
2013-04-25 16:49:00,60.1,49.6,30.07,North,0,2.5,5.4,68,0.00,,,0.00,WUHU216HW,2013-04-25 23:49:00,
2013-04-25 16:54:00,60.1,49.6,30.07,NE,45,2.5,5.8,68,0.00,,,0.00,WUHU216HW,2013-04-25 23:54:00,
2013-04-25 16:59:00,59.9,49.8,30.08,North,0,1.8,6.9,69,0.00,,,0.00,WUHU216HW,2013-04-25 23:59:00,
2013-04-25 17:04:00,59.9,49.8,30.07,NE,45,2.2,6.9,69,0.00,,,0.00,WUHU216HW,2013-04-26 00:04:00,
2013-04-25 17:09:00,59.9,49.8,30.07,NNW,338,4.0,6.0,69,0.00,,,0.00,WUHU216HW,2013-04-26 00:09:00,
2013-04-25 17:15:00,59.8,49.6,30.07,NNE,23,2.5,6.3,69,0.00,,,0.00,WUHU216HW,2013-04-26 00:15:00,
2013-04-25 17:20:00,59.8,49.6,30.07,NE,45,3.4,6.3,69,0.00,,,0.00,WUHU216HW,2013-04-26 00:20:00,
2013-04-25 17:25:00,59.8,49.6,30.07,ENE,68,3.1,6.3,69,0.00,,,0.00,WUHU216HW,2013-04-26 00:25:00,
2013-04-25 17:30:00,59.6,49.4,30.09,ENE,68,2.0,4.7,69,0.00,,,0.00,WUHU216HW,2013-04-26 00:30:00,
2013-04-25 17:35:00,59.6,49.4,30.08,North,0,0.9,5.1,69,0.00,,,0.00,WUHU216HW,2013-04-26 00:35:00,
2013-04-25 17:40:00,59.4,49.2,30.08,NNE,23,0.7,5.4,69,0.00,,,0.00,WUHU216HW,2013-04-26 00:40:00,
2013-04-25 17:45:00,59.4,49.2,30.08,North,0,5.1,5.4,69,0.00,,,0.00,WUHU216HW,2013-04-26 00:45:00,
2013-04-25 17:50:00,59.2,49.1,30.08,North,0,2.9,5.1,69,0.00,,,0.00,WUHU216HW,2013-04-26 00:50:00,
2013-04-25 17:55:00,59.0,49.3,30.09,ENE,68,2.2,5.1,70,0.00,,,0.00,WUHU216HW,2013-04-26 00:55:00,
2013-04-25 18:00:00,58.7,49.0,30.08,NNE,23,2.0,4.9,70,0.00,,,0.00,WUHU216HW,2013-04-26 01:00:00,
2013-04-25 18:06:00,58.5,49.1,30.07,North,0,2.5,4.9,71,0.00,,,0.00,WUHU216HW,2013-04-26 01:06:00,
2013-04-25 18:11:00,58.3,49.0,30.07,NE,45,0.7,4.9,71,0.00,,,0.00,WUHU216HW,2013-04-26 01:11:00,
2013-04-25 18:16:00,58.3,49.0,30.08,North,0,2.7,3.1,71,0.00,,,0.00,WUHU216HW,2013-04-26 01:16:00,
2013-04-25 18:21:00,58.1,48.8,30.08,NNE,23,3.4,4.5,71,0.00,,,0.00,WUHU216HW,2013-04-26 01:21:00,
2013-04-25 18:26:00,58.0,49.0,30.08,North,0,1.8,4.5,72,0.00,,,0.00,WUHU216HW,2013-04-26 01:26:00,
2013-04-25 18:31:00,57.8,48.8,30.08,ENE,68,0.4,3.6,72,0.00,,,0.00,WUHU216HW,2013-04-26 01:31:00,
2013-04-25 18:36:00,57.8,48.8,30.08,North,0,1.1,2.5,72,0.00,,,0.00,WUHU216HW,2013-04-26 01:36:00,
2013-04-25 18:41:00,57.6,48.6,30.09,North,0,1.8,3.1,72,0.00,,,0.00,WUHU216HW,2013-04-26 01:41:00,
2013-04-25 18:46:00,57.4,48.4,30.08,North,0,1.1,3.1,72,0.00,,,0.00,WUHU216HW,2013-04-26 01:46:00,
2013-04-25 18:51:00,57.2,48.2,30.08,NE,45,2.2,3.1,72,0.00,,,0.00,WUHU216HW,2013-04-26 01:51:00,
2013-04-25 18:56:00,57.1,48.4,30.08,NE,45,1.8,2.2,73,0.00,,,0.00,WUHU216HW,2013-04-26 01:56:00,
2013-04-25 19:02:00,56.9,48.2,30.07,NNE,23,0.7,1.8,73,0.00,,,0.00,WUHU216HW,2013-04-26 02:02:00,
2013-04-25 19:07:00,56.5,48.0,30.09,NNE,23,1.1,2.7,73,0.00,,,0.00,WUHU216HW,2013-04-26 02:07:00,
2013-04-25 19:12:00,56.5,48.0,30.07,NNW,338,0.7,1.8,73,0.00,,,0.00,WUHU216HW,2013-04-26 02:12:00,
2013-04-25 19:17:00,56.3,47.8,30.08,ESE,113,0.0,2.7,73,0.00,,,0.00,WUHU216HW,2013-04-26 02:17:00,
2013-04-25 19:22:00,56.5,48.0,30.08,East,90,0.0,0.9,73,0.00,,,0.00,WUHU216HW,2013-04-26 02:22:00,
2013-04-25 19:27:00,56.5,48.0,30.09,NNE,23,0.2,1.1,73,0.00,,,0.00,WUHU216HW,2013-04-26 02:27:00,
2013-04-25 19:32:00,56.5,48.0,30.07,South,180,0.0,1.1,73,0.00,,,0.00,WUHU216HW,2013-04-26 02:32:00,
2013-04-25 19:37:00,56.5,48.0,30.08,WNW,293,0.0,0.4,73,0.00,,,0.00,WUHU216HW,2013-04-26 02:37:00,
2013-04-25 19:42:00,56.5,48.0,30.08,WNW,293,0.0,0.2,73,0.00,,,0.00,WUHU216HW,2013-04-26 02:42:00,
2013-04-25 19:47:00,56.5,48.0,30.09,WNW,293,0.0,0.0,73,0.00,,,0.00,WUHU216HW,2013-04-26 02:47:00,
2013-04-25 19:53:00,56.5,48.0,30.08,WNW,293,0.0,0.0,73,0.00,,,0.00,WUHU216HW,2013-04-26 02:53:00,
2013-04-25 19:58:00,56.3,47.8,30.09,WNW,293,0.0,0.0,73,0.00,,,0.00,WUHU216HW,2013-04-26 02:58:00,
2013-04-25 20:03:00,56.2,47.6,30.09,WNW,293,0.0,0.0,73,0.00,,,0.00,WUHU216HW,2013-04-26 03:03:00,
2013-04-25 20:08:00,56.0,47.1,30.09,WNW,293,0.0,0.0,72,0.00,,,0.00,WUHU216HW,2013-04-26 03:08:00,
2013-04-25 20:13:00,55.8,47.3,30.10,West,270,0.0,0.0,73,0.00,,,0.00,WUHU216HW,2013-04-26 03:13:00,
2013-04-25 20:18:00,55.6,47.1,30.09,West,270,0.0,0.0,73,0.00,,,0.00,WUHU216HW,2013-04-26 03:18:00,
2013-04-25 20:23:00,55.6,47.1,30.09,West,270,0.0,0.0,73,0.00,,,0.00,WUHU216HW,2013-04-26 03:23:00,
2013-04-25 20:28:00,55.4,46.9,30.08,West,270,0.0,0.0,73,0.00,,,0.00,WUHU216HW,2013-04-26 03:28:00,
2013-04-25 20:33:00,55.3,46.7,30.09,West,270,0.0,0.0,73,0.00,,,0.00,WUHU216HW,2013-04-26 03:33:00,
2013-04-25 20:38:00,55.3,46.7,30.09,West,270,0.0,0.0,73,0.00,,,0.00,WUHU216HW,2013-04-26 03:38:00,
2013-04-25 20:43:00,55.1,46.6,30.09,WSW,248,0.0,0.0,73,0.00,,,0.00,WUHU216HW,2013-04-26 03:43:00,
2013-04-25 20:49:00,54.9,46.5,30.10,WSW,248,0.0,0.0,73,0.00,,,0.00,WUHU216HW,2013-04-26 03:49:00,
2013-04-25 20:54:00,54.7,46.3,30.10,WSW,248,0.0,0.0,73,0.00,,,0.00,WUHU216HW,2013-04-26 03:54:00,
2013-04-25 20:59:00,54.5,46.1,30.10,WSW,248,0.0,0.0,73,0.00,,,0.00,WUHU216HW,2013-04-26 03:59:00,
2013-04-25 21:01:00,54.5,46.5,30.11,WSW,248,0.0,0.0,74,0.00,,,0.00,WUHU216HW,2013-04-26 04:01:00,
2013-04-25 21:03:00,54.4,46.3,30.11,WSW,248,0.0,0.0,74,0.00,,,0.00,WUHU216HW,2013-04-26 04:03:00,
2013-04-25 21:08:00,54.4,46.3,30.11,WSW,248,0.0,0.0,74,0.00,,,0.00,WUHU216HW,2013-04-26 04:08:00,
2013-04-25 21:14:00,54.2,46.1,30.13,WSW,248,0.0,0.0,74,0.00,,,0.00,WUHU216HW,2013-04-26 04:14:00,
2013-04-25 21:19:00,54.2,46.1,30.12,WSW,248,0.0,0.0,74,0.00,,,0.00,WUHU216HW,2013-04-26 04:19:00,
2013-04-25 21:24:00,54.2,46.1,30.11,WSW,248,0.0,0.0,74,0.00,,,0.00,WUHU216HW,2013-04-26 04:24:00,
2013-04-25 21:29:00,54.0,45.9,30.11,WSW,248,0.0,0.0,74,0.00,,,0.00,WUHU216HW,2013-04-26 04:29:00,
2013-04-25 21:34:00,53.6,45.9,30.12,WSW,248,0.0,0.0,75,0.00,,,0.00,WUHU216HW,2013-04-26 04:34:00,
2013-04-25 21:39:00,53.6,45.9,30.11,WSW,248,0.0,0.0,75,0.00,,,0.00,WUHU216HW,2013-04-26 04:39:00,
2013-04-25 21:44:00,53.3,45.5,30.11,WSW,248,0.0,0.0,75,0.00,,,0.00,WUHU216HW,2013-04-26 04:44:00,
2013-04-25 21:49:00,53.3,45.5,30.11,SW,225,0.0,0.0,75,0.00,,,0.00,WUHU216HW,2013-04-26 04:49:00,
2013-04-25 21:54:00,53.3,45.5,30.12,SW,225,0.0,0.0,75,0.00,,,0.00,WUHU216HW,2013-04-26 04:54:00,
2013-04-25 21:59:00,53.1,45.4,30.11,SW,225,0.0,0.0,75,0.00,,,0.00,WUHU216HW,2013-04-26 04:59:00,
2013-04-25 22:04:00,52.9,45.2,30.10,SW,225,0.0,0.0,75,0.00,,,0.00,WUHU216HW,2013-04-26 05:04:00,
2013-04-25 22:10:00,52.7,45.4,30.11,SW,225,0.0,0.0,76,0.00,,,0.00,WUHU216HW,2013-04-26 05:10:00,
2013-04-25 22:15:00,52.6,45.5,30.11,SW,225,0.0,0.0,77,0.00,,,0.00,WUHU216HW,2013-04-26 05:15:00,
2013-04-25 22:20:00,52.4,45.7,30.11,SW,225,0.0,0.0,78,0.00,,,0.00,WUHU216HW,2013-04-26 05:20:00,
2013-04-25 22:25:00,52.2,45.5,30.11,SW,225,0.0,0.0,78,0.00,,,0.00,WUHU216HW,2013-04-26 05:25:00,
2013-04-25 22:30:00,52.2,45.5,30.11,SW,225,0.0,0.0,78,0.00,,,0.00,WUHU216HW,2013-04-26 05:30:00,
2013-04-25 22:35:00,52.2,45.2,30.10,WSW,248,0.0,0.0,77,0.00,,,0.00,WUHU216HW,2013-04-26 05:35:00,
2013-04-25 22:40:00,52.2,45.2,30.10,WSW,248,0.4,0.7,77,0.00,,,0.00,WUHU216HW,2013-04-26 05:40:00,
2013-04-25 22:45:00,52.4,45.7,30.10,West,270,0.7,1.3,78,0.00,,,0.00,WUHU216HW,2013-04-26 05:45:00,
2013-04-25 22:50:00,52.4,45.7,30.10,WSW,248,0.4,1.8,78,0.00,,,0.00,WUHU216HW,2013-04-26 05:50:00,
2013-04-25 22:55:00,52.4,45.7,30.09,WSW,248,1.1,1.3,78,0.00,,,0.00,WUHU216HW,2013-04-26 05:55:00,
2013-04-25 23:01:00,52.4,45.7,30.10,West,270,1.6,1.6,78,0.00,,,0.00,WUHU216HW,2013-04-26 06:01:00,
2013-04-25 23:06:00,52.2,45.5,30.11,West,270,1.3,1.6,78,0.00,,,0.00,WUHU216HW,2013-04-26 06:06:00,
2013-04-25 23:11:00,52.2,45.5,30.10,West,270,1.6,1.8,78,0.00,,,0.00,WUHU216HW,2013-04-26 06:11:00,
2013-04-25 23:16:00,52.2,45.5,30.10,West,270,0.2,1.8,78,0.00,,,0.00,WUHU216HW,2013-04-26 06:16:00,
2013-04-25 23:21:00,52.2,45.5,30.10,West,270,0.4,0.9,78,0.00,,,0.00,WUHU216HW,2013-04-26 06:21:00,
2013-04-25 23:26:00,52.2,45.9,30.09,West,270,1.1,1.6,79,0.00,,,0.00,WUHU216HW,2013-04-26 06:26:00,
2013-04-25 23:31:00,52.0,45.7,30.09,WSW,248,0.4,1.3,79,0.00,,,0.00,WUHU216HW,2013-04-26 06:31:00,
2013-04-25 23:36:00,52.0,45.7,30.09,West,270,1.1,1.1,79,0.00,,,0.00,WUHU216HW,2013-04-26 06:36:00,
2013-04-25 23:41:00,51.8,45.5,30.10,West,270,0.0,1.1,79,0.00,,,0.00,WUHU216HW,2013-04-26 06:41:00,
2013-04-25 23:46:00,51.8,45.5,30.10,WSW,248,0.2,1.1,79,0.00,,,0.00,WUHU216HW,2013-04-26 06:46:00,
2013-04-25 23:51:00,51.7,45.7,30.10,WSW,248,0.0,0.7,80,0.00,,,0.00,WUHU216HW,2013-04-26 06:51:00,
2013-04-25 23:56:00,51.7,45.4,30.10,WSW,248,0.0,0.2,79,0.00,,,0.00,WUHU216HW,2013-04-26 06:56:00,